sensor_id;sensor_type;location;lat;lon;timestamp;P1;durP1;ratioP1;P2;durP2;ratioP2
21128;SDS011;10722;51.910;8.352;2024-03-08T00:02:12;40.97;;;25.17;;
21128;SDS011;10722;51.910;8.352;2024-03-08T00:04:58;40.67;;;24.47;;
21128;SDS011;10722;51.910;8.352;2024-03-08T00:07:43;40.97;;;24.00;;
21128;SDS011;10722;51.910;8.352;2024-03-08T00:10:28;41.20;;;25.13;;
21128;SDS011;10722;51.910;8.352;2024-03-08T00:13:14;43.87;;;25.83;;
21128;SDS011;10722;51.910;8.352;2024-03-08T00:15:58;41.00;;;25.37;;
21128;SDS011;10722;51.910;8.352;2024-03-08T00:18:43;42.70;;;25.57;;
21128;SDS011;10722;51.910;8.352;2024-03-08T00:21:29;44.37;;;25.37;;
21128;SDS011;10722;51.910;8.352;2024-03-08T00:24:14;43.40;;;25.03;;
21128;SDS011;10722;51.910;8.352;2024-03-08T00:26:59;45.97;;;26.87;;
21128;SDS011;10722;51.910;8.352;2024-03-08T00:29:44;43.30;;;24.87;;
21128;SDS011;10722;51.910;8.352;2024-03-08T00:32:29;44.07;;;25.70;;
21128;SDS011;10722;51.910;8.352;2024-03-08T00:35:15;42.63;;;25.37;;
21128;SDS011;10722;51.910;8.352;2024-03-08T00:37:59;42.97;;;26.93;;
21128;SDS011;10722;51.910;8.352;2024-03-08T00:40:45;44.37;;;27.23;;
21128;SDS011;10722;51.910;8.352;2024-03-08T00:43:30;42.33;;;25.93;;
21128;SDS011;10722;51.910;8.352;2024-03-08T00:46:15;43.87;;;25.43;;
21128;SDS011;10722;51.910;8.352;2024-03-08T00:49:00;48.07;;;26.87;;
21128;SDS011;10722;51.910;8.352;2024-03-08T00:51:45;46.40;;;26.70;;
21128;SDS011;10722;51.910;8.352;2024-03-08T00:54:30;46.33;;;28.47;;
21128;SDS011;10722;51.910;8.352;2024-03-08T00:57:15;43.33;;;26.63;;
21128;SDS011;10722;51.910;8.352;2024-03-08T01:00:02;46.00;;;26.70;;
21128;SDS011;10722;51.910;8.352;2024-03-08T01:02:48;45.17;;;26.30;;
21128;SDS011;10722;51.910;8.352;2024-03-08T01:05:33;45.10;;;26.43;;
21128;SDS011;10722;51.910;8.352;2024-03-08T01:08:18;48.80;;;26.77;;
21128;SDS011;10722;51.910;8.352;2024-03-08T01:11:06;45.07;;;27.77;;
21128;SDS011;10722;51.910;8.352;2024-03-08T01:13:51;44.80;;;27.20;;
21128;SDS011;10722;51.910;8.352;2024-03-08T01:16:36;46.27;;;28.17;;
21128;SDS011;10722;51.910;8.352;2024-03-08T01:19:21;45.03;;;27.17;;
21128;SDS011;10722;51.910;8.352;2024-03-08T01:22:06;44.53;;;27.70;;
21128;SDS011;10722;51.910;8.352;2024-03-08T01:24:51;45.87;;;27.73;;
21128;SDS011;10722;51.910;8.352;2024-03-08T01:27:36;46.43;;;27.87;;
21128;SDS011;10722;51.910;8.352;2024-03-08T01:30:21;45.30;;;27.20;;
21128;SDS011;10722;51.910;8.352;2024-03-08T01:33:06;46.77;;;28.20;;
21128;SDS011;10722;51.910;8.352;2024-03-08T01:35:52;46.03;;;28.40;;
21128;SDS011;10722;51.910;8.352;2024-03-08T01:38:37;47.70;;;28.90;;
21128;SDS011;10722;51.910;8.352;2024-03-08T01:41:22;48.97;;;28.20;;
21128;SDS011;10722;51.910;8.352;2024-03-08T01:44:07;44.97;;;27.60;;
21128;SDS011;10722;51.910;8.352;2024-03-08T01:46:52;47.47;;;28.07;;
21128;SDS011;10722;51.910;8.352;2024-03-08T01:49:38;47.70;;;28.97;;
21128;SDS011;10722;51.910;8.352;2024-03-08T01:52:23;47.67;;;28.77;;
21128;SDS011;10722;51.910;8.352;2024-03-08T01:55:08;46.23;;;27.40;;
21128;SDS011;10722;51.910;8.352;2024-03-08T01:57:53;46.03;;;28.37;;
21128;SDS011;10722;51.910;8.352;2024-03-08T02:00:39;47.77;;;28.50;;
21128;SDS011;10722;51.910;8.352;2024-03-08T02:03:25;50.30;;;28.70;;
21128;SDS011;10722;51.910;8.352;2024-03-08T02:06:13;46.50;;;29.10;;
21128;SDS011;10722;51.910;8.352;2024-03-08T02:08:58;45.73;;;27.80;;
21128;SDS011;10722;51.910;8.352;2024-03-08T02:11:45;47.53;;;29.20;;
21128;SDS011;10722;51.910;8.352;2024-03-08T02:14:31;48.43;;;29.67;;
21128;SDS011;10722;51.910;8.352;2024-03-08T02:17:16;48.33;;;28.93;;
21128;SDS011;10722;51.910;8.352;2024-03-08T02:20:01;52.57;;;29.87;;
21128;SDS011;10722;51.910;8.352;2024-03-08T02:22:47;48.47;;;29.83;;
21128;SDS011;10722;51.910;8.352;2024-03-08T02:25:32;48.27;;;29.30;;
21128;SDS011;10722;51.910;8.352;2024-03-08T02:28:17;52.90;;;30.20;;
21128;SDS011;10722;51.910;8.352;2024-03-08T02:31:02;47.77;;;29.17;;
21128;SDS011;10722;51.910;8.352;2024-03-08T02:33:47;50.20;;;30.73;;
21128;SDS011;10722;51.910;8.352;2024-03-08T02:36:33;48.47;;;29.60;;
21128;SDS011;10722;51.910;8.352;2024-03-08T02:39:18;52.10;;;29.90;;
21128;SDS011;10722;51.910;8.352;2024-03-08T02:42:03;50.27;;;29.20;;
21128;SDS011;10722;51.910;8.352;2024-03-08T02:44:48;49.90;;;30.67;;
21128;SDS011;10722;51.910;8.352;2024-03-08T02:47:33;50.20;;;29.73;;
21128;SDS011;10722;51.910;8.352;2024-03-08T02:50:18;52.37;;;30.73;;
21128;SDS011;10722;51.910;8.352;2024-03-08T02:53:04;51.63;;;31.33;;
21128;SDS011;10722;51.910;8.352;2024-03-08T02:55:49;51.27;;;30.83;;
21128;SDS011;10722;51.910;8.352;2024-03-08T02:58:33;50.43;;;30.47;;
21128;SDS011;10722;51.910;8.352;2024-03-08T03:01:18;50.83;;;30.60;;
21128;SDS011;10722;51.910;8.352;2024-03-08T03:04:04;50.37;;;30.30;;
21128;SDS011;10722;51.910;8.352;2024-03-08T03:06:49;50.07;;;30.63;;
21128;SDS011;10722;51.910;8.352;2024-03-08T03:09:33;52.50;;;30.57;;
21128;SDS011;10722;51.910;8.352;2024-03-08T03:12:18;49.83;;;29.73;;
21128;SDS011;10722;51.910;8.352;2024-03-08T03:15:04;51.50;;;30.03;;
21128;SDS011;10722;51.910;8.352;2024-03-08T03:17:50;53.87;;;32.27;;
21128;SDS011;10722;51.910;8.352;2024-03-08T03:20:36;52.67;;;31.57;;
21128;SDS011;10722;51.910;8.352;2024-03-08T03:23:21;53.13;;;30.77;;
21128;SDS011;10722;51.910;8.352;2024-03-08T03:26:06;52.60;;;31.70;;
21128;SDS011;10722;51.910;8.352;2024-03-08T03:28:51;50.33;;;31.20;;
21128;SDS011;10722;51.910;8.352;2024-03-08T03:31:36;53.40;;;31.40;;
21128;SDS011;10722;51.910;8.352;2024-03-08T03:34:21;51.23;;;31.23;;
21128;SDS011;10722;51.910;8.352;2024-03-08T03:37:06;53.03;;;31.73;;
21128;SDS011;10722;51.910;8.352;2024-03-08T03:39:51;55.80;;;30.40;;
21128;SDS011;10722;51.910;8.352;2024-03-08T03:42:36;51.57;;;31.27;;
21128;SDS011;10722;51.910;8.352;2024-03-08T03:45:21;54.17;;;32.20;;
21128;SDS011;10722;51.910;8.352;2024-03-08T03:48:06;51.83;;;31.70;;
21128;SDS011;10722;51.910;8.352;2024-03-08T03:50:52;53.10;;;31.37;;
21128;SDS011;10722;51.910;8.352;2024-03-08T03:53:37;52.73;;;31.03;;
21128;SDS011;10722;51.910;8.352;2024-03-08T03:56:26;50.57;;;31.30;;
21128;SDS011;10722;51.910;8.352;2024-03-08T03:59:11;54.87;;;32.20;;
21128;SDS011;10722;51.910;8.352;2024-03-08T04:01:56;53.17;;;31.60;;
21128;SDS011;10722;51.910;8.352;2024-03-08T04:04:41;54.07;;;31.30;;
21128;SDS011;10722;51.910;8.352;2024-03-08T04:07:26;54.97;;;31.90;;
21128;SDS011;10722;51.910;8.352;2024-03-08T04:10:11;52.47;;;31.80;;
21128;SDS011;10722;51.910;8.352;2024-03-08T04:12:56;55.57;;;31.60;;
21128;SDS011;10722;51.910;8.352;2024-03-08T04:15:41;52.60;;;31.73;;
21128;SDS011;10722;51.910;8.352;2024-03-08T04:18:28;54.80;;;32.00;;
21128;SDS011;10722;51.910;8.352;2024-03-08T04:21:13;54.10;;;32.80;;
21128;SDS011;10722;51.910;8.352;2024-03-08T04:23:58;54.60;;;31.73;;
21128;SDS011;10722;51.910;8.352;2024-03-08T04:26:43;56.90;;;32.40;;
21128;SDS011;10722;51.910;8.352;2024-03-08T04:29:28;55.90;;;33.17;;
21128;SDS011;10722;51.910;8.352;2024-03-08T04:32:12;54.53;;;31.33;;
21128;SDS011;10722;51.910;8.352;2024-03-08T04:34:57;52.87;;;31.70;;
21128;SDS011;10722;51.910;8.352;2024-03-08T04:37:42;52.90;;;31.33;;
21128;SDS011;10722;51.910;8.352;2024-03-08T04:40:27;56.13;;;31.67;;
21128;SDS011;10722;51.910;8.352;2024-03-08T04:43:12;52.83;;;30.67;;
21128;SDS011;10722;51.910;8.352;2024-03-08T04:45:57;56.73;;;31.57;;
21128;SDS011;10722;51.910;8.352;2024-03-08T04:48:42;55.43;;;31.63;;
21128;SDS011;10722;51.910;8.352;2024-03-08T04:51:27;55.87;;;32.00;;
21128;SDS011;10722;51.910;8.352;2024-03-08T04:54:12;53.10;;;31.00;;
21128;SDS011;10722;51.910;8.352;2024-03-08T04:56:58;53.20;;;30.47;;
21128;SDS011;10722;51.910;8.352;2024-03-08T04:59:43;55.77;;;31.53;;
21128;SDS011;10722;51.910;8.352;2024-03-08T05:02:28;54.33;;;31.43;;
21128;SDS011;10722;51.910;8.352;2024-03-08T05:05:13;56.90;;;32.23;;
21128;SDS011;10722;51.910;8.352;2024-03-08T05:07:58;54.00;;;31.07;;
21128;SDS011;10722;51.910;8.352;2024-03-08T05:10:43;51.07;;;31.47;;
21128;SDS011;10722;51.910;8.352;2024-03-08T05:13:28;51.60;;;30.20;;
21128;SDS011;10722;51.910;8.352;2024-03-08T05:16:13;56.33;;;32.17;;
21128;SDS011;10722;51.910;8.352;2024-03-08T05:18:58;55.17;;;32.13;;
21128;SDS011;10722;51.910;8.352;2024-03-08T05:21:43;56.17;;;32.63;;
21128;SDS011;10722;51.910;8.352;2024-03-08T05:24:29;59.50;;;34.97;;
21128;SDS011;10722;51.910;8.352;2024-03-08T05:27:14;59.40;;;34.37;;
21128;SDS011;10722;51.910;8.352;2024-03-08T05:29:59;55.93;;;33.37;;
21128;SDS011;10722;51.910;8.352;2024-03-08T05:32:44;54.93;;;31.87;;
21128;SDS011;10722;51.910;8.352;2024-03-08T05:35:30;58.40;;;33.80;;
21128;SDS011;10722;51.910;8.352;2024-03-08T05:38:15;57.90;;;33.93;;
21128;SDS011;10722;51.910;8.352;2024-03-08T05:41:00;57.60;;;32.13;;
21128;SDS011;10722;51.910;8.352;2024-03-08T05:43:49;55.30;;;33.10;;
21128;SDS011;10722;51.910;8.352;2024-03-08T05:46:34;53.77;;;32.37;;
21128;SDS011;10722;51.910;8.352;2024-03-08T05:49:19;58.50;;;33.17;;
21128;SDS011;10722;51.910;8.352;2024-03-08T05:52:04;57.00;;;33.13;;
21128;SDS011;10722;51.910;8.352;2024-03-08T05:54:49;53.70;;;32.27;;
21128;SDS011;10722;51.910;8.352;2024-03-08T05:57:34;57.03;;;33.13;;
21128;SDS011;10722;51.910;8.352;2024-03-08T06:00:20;56.60;;;32.50;;
21128;SDS011;10722;51.910;8.352;2024-03-08T06:03:05;56.90;;;31.47;;
21128;SDS011;10722;51.910;8.352;2024-03-08T06:05:50;58.37;;;33.27;;
21128;SDS011;10722;51.910;8.352;2024-03-08T06:08:36;55.60;;;33.63;;
21128;SDS011;10722;51.910;8.352;2024-03-08T06:11:21;55.10;;;33.33;;
21128;SDS011;10722;51.910;8.352;2024-03-08T06:14:06;60.30;;;32.50;;
21128;SDS011;10722;51.910;8.352;2024-03-08T06:16:52;62.93;;;33.47;;
21128;SDS011;10722;51.910;8.352;2024-03-08T06:19:37;58.63;;;32.47;;
21128;SDS011;10722;51.910;8.352;2024-03-08T06:22:22;59.20;;;33.80;;
21128;SDS011;10722;51.910;8.352;2024-03-08T06:25:13;57.23;;;33.40;;
21128;SDS011;10722;51.910;8.352;2024-03-08T06:27:58;54.70;;;32.97;;
21128;SDS011;10722;51.910;8.352;2024-03-08T06:30:43;55.97;;;32.63;;
21128;SDS011;10722;51.910;8.352;2024-03-08T06:33:28;55.43;;;33.40;;
21128;SDS011;10722;51.910;8.352;2024-03-08T06:36:15;57.20;;;34.10;;
21128;SDS011;10722;51.910;8.352;2024-03-08T06:39:01;57.30;;;33.37;;
21128;SDS011;10722;51.910;8.352;2024-03-08T06:41:46;57.63;;;33.23;;
21128;SDS011;10722;51.910;8.352;2024-03-08T06:44:31;54.10;;;32.93;;
21128;SDS011;10722;51.910;8.352;2024-03-08T06:47:16;56.73;;;33.07;;
21128;SDS011;10722;51.910;8.352;2024-03-08T06:50:01;54.67;;;30.83;;
21128;SDS011;10722;51.910;8.352;2024-03-08T06:52:46;55.60;;;33.50;;
21128;SDS011;10722;51.910;8.352;2024-03-08T06:55:31;54.43;;;32.40;;
21128;SDS011;10722;51.910;8.352;2024-03-08T06:58:17;54.93;;;33.17;;
21128;SDS011;10722;51.910;8.352;2024-03-08T07:01:02;52.83;;;31.63;;
21128;SDS011;10722;51.910;8.352;2024-03-08T07:03:47;57.70;;;31.80;;
21128;SDS011;10722;51.910;8.352;2024-03-08T07:06:32;51.10;;;31.87;;
21128;SDS011;10722;51.910;8.352;2024-03-08T07:09:17;53.60;;;32.20;;
21128;SDS011;10722;51.910;8.352;2024-03-08T07:12:03;53.23;;;31.33;;
21128;SDS011;10722;51.910;8.352;2024-03-08T07:14:48;54.13;;;31.47;;
21128;SDS011;10722;51.910;8.352;2024-03-08T07:17:34;52.33;;;32.27;;
21128;SDS011;10722;51.910;8.352;2024-03-08T07:20:20;52.10;;;31.70;;
21128;SDS011;10722;51.910;8.352;2024-03-08T07:23:05;53.63;;;32.60;;
21128;SDS011;10722;51.910;8.352;2024-03-08T07:25:50;49.90;;;30.83;;
21128;SDS011;10722;51.910;8.352;2024-03-08T07:28:35;63.10;;;32.03;;
21128;SDS011;10722;51.910;8.352;2024-03-08T07:31:20;50.70;;;31.43;;
21128;SDS011;10722;51.910;8.352;2024-03-08T07:34:05;52.33;;;31.57;;
21128;SDS011;10722;51.910;8.352;2024-03-08T07:36:50;51.93;;;32.53;;
21128;SDS011;10722;51.910;8.352;2024-03-08T07:39:35;52.43;;;31.80;;
21128;SDS011;10722;51.910;8.352;2024-03-08T07:42:21;53.30;;;33.03;;
21128;SDS011;10722;51.910;8.352;2024-03-08T07:45:06;55.20;;;31.83;;
21128;SDS011;10722;51.910;8.352;2024-03-08T07:47:52;51.93;;;31.30;;
21128;SDS011;10722;51.910;8.352;2024-03-08T07:50:37;54.43;;;32.03;;
21128;SDS011;10722;51.910;8.352;2024-03-08T07:53:22;55.93;;;33.40;;
21128;SDS011;10722;51.910;8.352;2024-03-08T07:56:07;53.30;;;31.97;;
21128;SDS011;10722;51.910;8.352;2024-03-08T07:58:52;52.47;;;32.67;;
21128;SDS011;10722;51.910;8.352;2024-03-08T08:01:37;55.20;;;31.90;;
21128;SDS011;10722;51.910;8.352;2024-03-08T08:04:23;55.57;;;32.70;;
21128;SDS011;10722;51.910;8.352;2024-03-08T08:07:08;52.80;;;32.37;;
21128;SDS011;10722;51.910;8.352;2024-03-08T08:09:53;52.63;;;32.20;;
21128;SDS011;10722;51.910;8.352;2024-03-08T08:12:38;53.17;;;31.87;;
21128;SDS011;10722;51.910;8.352;2024-03-08T08:15:23;48.70;;;29.93;;
21128;SDS011;10722;51.910;8.352;2024-03-08T08:18:08;48.70;;;31.57;;
21128;SDS011;10722;51.910;8.352;2024-03-08T08:20:53;51.47;;;31.10;;
21128;SDS011;10722;51.910;8.352;2024-03-08T08:23:38;46.90;;;30.07;;
21128;SDS011;10722;51.910;8.352;2024-03-08T08:26:22;51.90;;;31.77;;
21128;SDS011;10722;51.910;8.352;2024-03-08T08:29:07;53.10;;;29.80;;
21128;SDS011;10722;51.910;8.352;2024-03-08T08:31:52;48.83;;;30.53;;
21128;SDS011;10722;51.910;8.352;2024-03-08T08:34:37;48.97;;;29.87;;
21128;SDS011;10722;51.910;8.352;2024-03-08T08:37:22;49.83;;;31.07;;
21128;SDS011;10722;51.910;8.352;2024-03-08T08:40:10;53.77;;;32.13;;
21128;SDS011;10722;51.910;8.352;2024-03-08T08:42:56;45.50;;;29.30;;
21128;SDS011;10722;51.910;8.352;2024-03-08T08:45:41;45.57;;;28.47;;
21128;SDS011;10722;51.910;8.352;2024-03-08T08:48:26;47.67;;;29.20;;
21128;SDS011;10722;51.910;8.352;2024-03-08T08:51:12;48.97;;;29.93;;
21128;SDS011;10722;51.910;8.352;2024-03-08T08:53:57;46.93;;;29.20;;
21128;SDS011;10722;51.910;8.352;2024-03-08T08:56:41;46.63;;;29.57;;
21128;SDS011;10722;51.910;8.352;2024-03-08T08:59:27;45.77;;;28.43;;
21128;SDS011;10722;51.910;8.352;2024-03-08T09:02:13;46.97;;;29.30;;
21128;SDS011;10722;51.910;8.352;2024-03-08T09:05:01;46.10;;;28.63;;
21128;SDS011;10722;51.910;8.352;2024-03-08T09:07:47;43.77;;;27.77;;
21128;SDS011;10722;51.910;8.352;2024-03-08T09:10:32;47.50;;;28.53;;
21128;SDS011;10722;51.910;8.352;2024-03-08T09:13:17;46.07;;;28.77;;
21128;SDS011;10722;51.910;8.352;2024-03-08T09:16:15;44.13;;;28.07;;
21128;SDS011;10722;51.910;8.352;2024-03-08T09:19:01;44.20;;;27.73;;
21128;SDS011;10722;51.910;8.352;2024-03-08T09:21:46;43.53;;;27.57;;
21128;SDS011;10722;51.910;8.352;2024-03-08T09:24:31;45.47;;;27.80;;
21128;SDS011;10722;51.910;8.352;2024-03-08T09:27:16;45.43;;;27.13;;
21128;SDS011;10722;51.910;8.352;2024-03-08T09:30:02;43.53;;;27.30;;
21128;SDS011;10722;51.910;8.352;2024-03-08T09:32:47;43.00;;;27.60;;
21128;SDS011;10722;51.910;8.352;2024-03-08T09:35:32;43.87;;;26.63;;
21128;SDS011;10722;51.910;8.352;2024-03-08T09:38:17;43.93;;;27.63;;
21128;SDS011;10722;51.910;8.352;2024-03-08T09:41:02;45.47;;;27.87;;
21128;SDS011;10722;51.910;8.352;2024-03-08T09:43:48;47.80;;;27.37;;
21128;SDS011;10722;51.910;8.352;2024-03-08T09:46:32;39.50;;;25.67;;
21128;SDS011;10722;51.910;8.352;2024-03-08T09:49:18;42.67;;;26.63;;
21128;SDS011;10722;51.910;8.352;2024-03-08T09:52:04;42.93;;;26.97;;
21128;SDS011;10722;51.910;8.352;2024-03-08T09:54:49;40.97;;;26.50;;
21128;SDS011;10722;51.910;8.352;2024-03-08T09:57:34;45.73;;;26.83;;
21128;SDS011;10722;51.910;8.352;2024-03-08T10:00:21;42.53;;;25.43;;
21128;SDS011;10722;51.910;8.352;2024-03-08T10:03:06;39.67;;;24.97;;
21128;SDS011;10722;51.910;8.352;2024-03-08T10:05:51;40.03;;;25.53;;
21128;SDS011;10722;51.910;8.352;2024-03-08T10:08:37;39.90;;;25.80;;
21128;SDS011;10722;51.910;8.352;2024-03-08T10:11:22;39.80;;;25.73;;
21128;SDS011;10722;51.910;8.352;2024-03-08T10:14:07;41.33;;;25.63;;
21128;SDS011;10722;51.910;8.352;2024-03-08T10:16:54;40.13;;;25.23;;
21128;SDS011;10722;51.910;8.352;2024-03-08T10:19:40;40.23;;;25.03;;
21128;SDS011;10722;51.910;8.352;2024-03-08T10:22:34;39.87;;;24.57;;
21128;SDS011;10722;51.910;8.352;2024-03-08T10:25:19;39.57;;;25.27;;
21128;SDS011;10722;51.910;8.352;2024-03-08T10:28:04;41.13;;;25.40;;
21128;SDS011;10722;51.910;8.352;2024-03-08T10:30:50;40.80;;;25.83;;
21128;SDS011;10722;51.910;8.352;2024-03-08T10:33:35;37.73;;;23.87;;
21128;SDS011;10722;51.910;8.352;2024-03-08T10:36:21;36.40;;;23.63;;
21128;SDS011;10722;51.910;8.352;2024-03-08T10:39:08;38.17;;;23.83;;
21128;SDS011;10722;51.910;8.352;2024-03-08T10:42:03;36.23;;;23.30;;
21128;SDS011;10722;51.910;8.352;2024-03-08T10:44:53;36.57;;;23.77;;
21128;SDS011;10722;51.910;8.352;2024-03-08T10:51:01;36.23;;;23.57;;
21128;SDS011;10722;51.910;8.352;2024-03-08T10:53:47;37.33;;;23.40;;
21128;SDS011;10722;51.910;8.352;2024-03-08T10:56:33;34.23;;;21.70;;
21128;SDS011;10722;51.910;8.352;2024-03-08T10:59:19;35.93;;;20.90;;
21128;SDS011;10722;51.910;8.352;2024-03-08T11:02:05;32.43;;;20.97;;
21128;SDS011;10722;51.910;8.352;2024-03-08T11:04:51;30.87;;;19.17;;
21128;SDS011;10722;51.910;8.352;2024-03-08T11:07:36;31.63;;;19.17;;
21128;SDS011;10722;51.910;8.352;2024-03-08T11:10:26;30.87;;;19.00;;
21128;SDS011;10722;51.910;8.352;2024-03-08T11:13:32;32.80;;;19.43;;
21128;SDS011;10722;51.910;8.352;2024-03-08T11:16:44;36.77;;;21.57;;
21128;SDS011;10722;51.910;8.352;2024-03-08T11:19:28;32.33;;;19.83;;
21128;SDS011;10722;51.910;8.352;2024-03-08T11:22:22;33.07;;;20.43;;
21128;SDS011;10722;51.910;8.352;2024-03-08T11:25:09;29.73;;;19.00;;
21128;SDS011;10722;51.910;8.352;2024-03-08T11:28:07;29.03;;;17.03;;
21128;SDS011;10722;51.910;8.352;2024-03-08T11:33:45;30.53;;;18.43;;
21128;SDS011;10722;51.910;8.352;2024-03-08T11:36:31;28.70;;;17.20;;
21128;SDS011;10722;51.910;8.352;2024-03-08T11:39:19;29.53;;;18.23;;
21128;SDS011;10722;51.910;8.352;2024-03-08T11:42:04;28.13;;;17.60;;
21128;SDS011;10722;51.910;8.352;2024-03-08T11:44:50;30.60;;;19.90;;
21128;SDS011;10722;51.910;8.352;2024-03-08T11:47:35;31.67;;;18.90;;
21128;SDS011;10722;51.910;8.352;2024-03-08T11:50:20;32.60;;;19.57;;
21128;SDS011;10722;51.910;8.352;2024-03-08T11:53:06;31.10;;;19.13;;
21128;SDS011;10722;51.910;8.352;2024-03-08T11:55:51;30.25;;;18.33;;
21128;SDS011;10722;51.910;8.352;2024-03-08T11:58:36;33.53;;;19.35;;
21128;SDS011;10722;51.910;8.352;2024-03-08T12:01:22;32.28;;;19.33;;
21128;SDS011;10722;51.910;8.352;2024-03-08T12:04:11;33.60;;;20.55;;
21128;SDS011;10722;51.910;8.352;2024-03-08T12:07:00;29.70;;;18.30;;
21128;SDS011;10722;51.910;8.352;2024-03-08T12:10:13;29.35;;;19.08;;
21128;SDS011;10722;51.910;8.352;2024-03-08T12:13:04;31.15;;;18.67;;
21128;SDS011;10722;51.910;8.352;2024-03-08T12:15:51;29.80;;;19.17;;
21128;SDS011;10722;51.910;8.352;2024-03-08T12:18:37;30.45;;;19.48;;
21128;SDS011;10722;51.910;8.352;2024-03-08T12:21:25;30.15;;;19.08;;
21128;SDS011;10722;51.910;8.352;2024-03-08T12:24:11;30.35;;;18.58;;
21128;SDS011;10722;51.910;8.352;2024-03-08T12:27:00;34.13;;;19.80;;
21128;SDS011;10722;51.910;8.352;2024-03-08T12:29:45;69.97;;;46.13;;
21128;SDS011;10722;51.910;8.352;2024-03-08T12:32:30;30.97;;;19.70;;
21128;SDS011;10722;51.910;8.352;2024-03-08T12:35:16;29.33;;;17.13;;
21128;SDS011;10722;51.910;8.352;2024-03-08T12:38:01;28.40;;;17.52;;
21128;SDS011;10722;51.910;8.352;2024-03-08T12:40:46;25.48;;;16.60;;
21128;SDS011;10722;51.910;8.352;2024-03-08T12:43:32;27.42;;;17.05;;
21128;SDS011;10722;51.910;8.352;2024-03-08T12:46:17;30.48;;;17.38;;
21128;SDS011;10722;51.910;8.352;2024-03-08T12:49:03;26.67;;;16.80;;
21128;SDS011;10722;51.910;8.352;2024-03-08T12:51:48;26.45;;;16.77;;
21128;SDS011;10722;51.910;8.352;2024-03-08T12:54:34;24.73;;;15.50;;
21128;SDS011;10722;51.910;8.352;2024-03-08T12:57:19;26.10;;;16.05;;
21128;SDS011;10722;51.910;8.352;2024-03-08T13:00:04;28.35;;;16.23;;
21128;SDS011;10722;51.910;8.352;2024-03-08T13:02:50;25.60;;;15.88;;
21128;SDS011;10722;51.910;8.352;2024-03-08T13:05:35;25.70;;;16.08;;
21128;SDS011;10722;51.910;8.352;2024-03-08T13:08:21;26.38;;;16.00;;
21128;SDS011;10722;51.910;8.352;2024-03-08T13:11:08;26.60;;;16.30;;
21128;SDS011;10722;51.910;8.352;2024-03-08T13:13:54;28.50;;;16.40;;
21128;SDS011;10722;51.910;8.352;2024-03-08T13:16:39;27.15;;;16.55;;
21128;SDS011;10722;51.910;8.352;2024-03-08T13:19:24;28.35;;;16.90;;
21128;SDS011;10722;51.910;8.352;2024-03-08T13:22:09;28.17;;;18.05;;
21128;SDS011;10722;51.910;8.352;2024-03-08T13:24:55;30.50;;;18.05;;
21128;SDS011;10722;51.910;8.352;2024-03-08T13:27:40;30.75;;;18.45;;
21128;SDS011;10722;51.910;8.352;2024-03-08T13:30:26;28.38;;;17.85;;
21128;SDS011;10722;51.910;8.352;2024-03-08T13:33:11;30.55;;;17.10;;
21128;SDS011;10722;51.910;8.352;2024-03-08T13:35:57;28.67;;;18.33;;
21128;SDS011;10722;51.910;8.352;2024-03-08T13:38:49;31.25;;;17.48;;
21128;SDS011;10722;51.910;8.352;2024-03-08T13:41:34;26.95;;;16.67;;
21128;SDS011;10722;51.910;8.352;2024-03-08T13:44:19;28.85;;;17.10;;
21128;SDS011;10722;51.910;8.352;2024-03-08T13:47:05;28.35;;;17.35;;
21128;SDS011;10722;51.910;8.352;2024-03-08T13:49:50;28.15;;;17.08;;
21128;SDS011;10722;51.910;8.352;2024-03-08T13:52:36;27.25;;;16.83;;
21128;SDS011;10722;51.910;8.352;2024-03-08T13:55:22;28.67;;;17.65;;
21128;SDS011;10722;51.910;8.352;2024-03-08T13:58:08;27.77;;;17.70;;
21128;SDS011;10722;51.910;8.352;2024-03-08T14:00:53;28.60;;;17.58;;
21128;SDS011;10722;51.910;8.352;2024-03-08T14:03:38;28.65;;;17.65;;
21128;SDS011;10722;51.910;8.352;2024-03-08T14:06:24;29.38;;;18.08;;
21128;SDS011;10722;51.910;8.352;2024-03-08T14:09:10;28.83;;;17.85;;
21128;SDS011;10722;51.910;8.352;2024-03-08T14:11:56;32.58;;;19.77;;
21128;SDS011;10722;51.910;8.352;2024-03-08T14:14:41;30.70;;;19.85;;
21128;SDS011;10722;51.910;8.352;2024-03-08T14:17:26;29.00;;;18.05;;
21128;SDS011;10722;51.910;8.352;2024-03-08T14:20:12;30.15;;;19.00;;
21128;SDS011;10722;51.910;8.352;2024-03-08T14:22:57;30.80;;;19.35;;
21128;SDS011;10722;51.910;8.352;2024-03-08T14:25:42;31.55;;;20.30;;
21128;SDS011;10722;51.910;8.352;2024-03-08T14:28:27;31.98;;;19.65;;
21128;SDS011;10722;51.910;8.352;2024-03-08T14:31:13;30.42;;;19.90;;
21128;SDS011;10722;51.910;8.352;2024-03-08T14:33:58;33.17;;;20.30;;
21128;SDS011;10722;51.910;8.352;2024-03-08T14:36:43;32.60;;;20.77;;
21128;SDS011;10722;51.910;8.352;2024-03-08T14:39:27;32.33;;;20.83;;
21128;SDS011;10722;51.910;8.352;2024-03-08T14:42:12;33.33;;;20.75;;
21128;SDS011;10722;51.910;8.352;2024-03-08T14:44:57;31.67;;;19.88;;
21128;SDS011;10722;51.910;8.352;2024-03-08T14:47:42;33.20;;;21.15;;
21128;SDS011;10722;51.910;8.352;2024-03-08T14:50:27;34.05;;;19.80;;
21128;SDS011;10722;51.910;8.352;2024-03-08T14:53:12;33.10;;;21.27;;
21128;SDS011;10722;51.910;8.352;2024-03-08T14:55:57;35.78;;;21.30;;
21128;SDS011;10722;51.910;8.352;2024-03-08T14:58:43;32.95;;;21.13;;
21128;SDS011;10722;51.910;8.352;2024-03-08T15:01:29;33.75;;;21.48;;
21128;SDS011;10722;51.910;8.352;2024-03-08T15:04:14;34.53;;;21.27;;
21128;SDS011;10722;51.910;8.352;2024-03-08T15:07:00;32.73;;;20.97;;
21128;SDS011;10722;51.910;8.352;2024-03-08T15:09:45;35.27;;;22.03;;
21128;SDS011;10722;51.910;8.352;2024-03-08T15:12:30;36.20;;;21.90;;
21128;SDS011;10722;51.910;8.352;2024-03-08T15:15:15;34.83;;;21.30;;
21128;SDS011;10722;51.910;8.352;2024-03-08T15:18:00;32.95;;;20.67;;
21128;SDS011;10722;51.910;8.352;2024-03-08T15:20:45;34.80;;;21.95;;
21128;SDS011;10722;51.910;8.352;2024-03-08T15:23:30;34.63;;;20.77;;
21128;SDS011;10722;51.910;8.352;2024-03-08T15:26:16;34.07;;;21.00;;
21128;SDS011;10722;51.910;8.352;2024-03-08T15:29:01;33.75;;;20.35;;
21128;SDS011;10722;51.910;8.352;2024-03-08T15:31:46;33.70;;;20.42;;
21128;SDS011;10722;51.910;8.352;2024-03-08T15:34:32;33.47;;;20.63;;
21128;SDS011;10722;51.910;8.352;2024-03-08T15:37:18;33.87;;;21.60;;
21128;SDS011;10722;51.910;8.352;2024-03-08T15:40:03;34.55;;;20.58;;
21128;SDS011;10722;51.910;8.352;2024-03-08T15:42:59;32.30;;;20.42;;
21128;SDS011;10722;51.910;8.352;2024-03-08T15:45:44;35.00;;;21.02;;
21128;SDS011;10722;51.910;8.352;2024-03-08T15:48:30;33.38;;;20.52;;
21128;SDS011;10722;51.910;8.352;2024-03-08T15:51:19;34.85;;;20.85;;
21128;SDS011;10722;51.910;8.352;2024-03-08T15:54:04;32.20;;;20.52;;
21128;SDS011;10722;51.910;8.352;2024-03-08T15:56:49;33.67;;;21.45;;
21128;SDS011;10722;51.910;8.352;2024-03-08T15:59:35;34.63;;;21.87;;
21128;SDS011;10722;51.910;8.352;2024-03-08T16:02:20;31.67;;;19.88;;
21128;SDS011;10722;51.910;8.352;2024-03-08T16:05:05;33.33;;;20.97;;
21128;SDS011;10722;51.910;8.352;2024-03-08T16:07:51;31.65;;;20.48;;
21128;SDS011;10722;51.910;8.352;2024-03-08T16:10:36;36.65;;;21.38;;
21128;SDS011;10722;51.910;8.352;2024-03-08T16:13:25;34.87;;;21.60;;
21128;SDS011;10722;51.910;8.352;2024-03-08T16:16:11;39.20;;;24.37;;